Time;durP1;ratioP1;P1;durP2;ratioP2;P2;SDS_P1;SDS_P2;PMS_P1;PMS_P2;Temp;Humidity;BMP_temperature;BMP_pressure;BME280_temperature;BME280_humidity;BME280_pressure;Samples;Min_cycle;Max_cycle;Signal;HPM_P1;HPM_P2
2022/10/04 00:01:53;;;;;;;422.98;386.67;;;;;;;7.55;100.00;98047.88;7383504;19;20014;-65
2022/10/04 00:04:31;;;;;;;437.33;398.08;;;;;;;7.56;100.00;98052.19;7378930;19;20018;-66
2022/10/04 00:07:05;;;;;;;446.35;408.73;;;;;;;7.60;100.00;98063.31;7385856;19;20852;-67
2022/10/04 00:09:47;;;;;;;451.75;412.00;;;;;;;7.61;100.00;98052.78;7378991;19;20017;-65
2022/10/04 00:12:25;;;;;;;429.90;392.83;;;;;;;7.72;100.00;98054.84;7384889;19;20009;-65
2022/10/04 00:14:58;;;;;;;439.73;400.38;;;;;;;7.72;100.00;98042.59;7378315;19;20078;-65
2022/10/04 00:17:30;;;;;;;436.70;399.38;;;;;;;7.68;100.00;98048.09;7382647;19;20017;-66
2022/10/04 00:20:01;;;;;;;432.73;395.70;;;;;;;7.69;100.00;98041.91;7383267;19;20018;-66
2022/10/04 00:22:32;;;;;;;456.15;416.38;;;;;;;7.55;100.00;98041.78;7379436;19;20022;-66
2022/10/04 00:25:35;;;;;;;442.10;405.13;;;;;;;7.62;100.00;98037.94;7384369;19;20006;-67
2022/10/04 00:28:41;;;;;;;450.13;411.65;;;;;;;7.64;100.00;98036.91;7384633;19;20029;-65
2022/10/04 00:31:19;;;;;;;427.55;389.67;;;;;;;7.70;100.00;98039.22;7383329;19;20021;-66
2022/10/04 00:33:52;;;;;;;419.10;381.85;;;;;;;7.58;100.00;98039.00;7384832;19;20019;-66
2022/10/04 00:36:56;;;;;;;446.73;405.95;;;;;;;7.56;100.00;98035.63;7378496;19;20018;-67
2022/10/04 00:39:43;;;;;;;445.88;406.42;;;;;;;7.61;100.00;98037.06;7377640;19;20010;-67
2022/10/04 00:42:41;;;;;;;434.50;397.42;;;;;;;7.62;100.00;98032.69;7388318;19;20010;-66
2022/10/04 00:45:26;;;;;;;445.52;406.02;;;;;;;7.70;100.00;98036.59;7390672;19;20006;-65
2022/10/04 00:48:15;;;;;;;424.65;387.13;;;;;;;7.46;100.00;98037.88;7387082;19;20370;-75
2022/10/04 00:50:50;;;;;;;440.58;402.48;;;;;;;7.54;100.00;98033.06;7387920;19;20003;-71
2022/10/04 00:53:29;;;;;;;422.67;384.50;;;;;;;7.52;100.00;98032.31;7385002;19;20033;-76
2022/10/04 00:56:05;;;;;;;429.10;391.67;;;;;;;7.66;100.00;98026.38;7387856;19;20006;-74
2022/10/04 00:58:42;;;;;;;437.60;400.48;;;;;;;7.39;100.00;98031.25;7390756;19;20022;-65
2022/10/04 01:01:13;;;;;;;428.52;391.77;;;;;;;7.30;100.00;98015.19;7389360;19;20010;-68
2022/10/04 01:03:47;;;;;;;438.15;400.10;;;;;;;7.30;100.00;98020.41;7385996;19;20506;-68
2022/10/04 01:06:17;;;;;;;440.45;400.42;;;;;;;7.45;100.00;98017.84;7384903;19;20118;-67
2022/10/04 01:08:50;;;;;;;440.17;402.20;;;;;;;7.39;100.00;98023.41;7390390;19;20014;-65
2022/10/04 01:11:24;;;;;;;430.50;392.63;;;;;;;7.43;100.00;98019.69;7388907;19;20463;-68
2022/10/04 01:14:01;;;;;;;455.67;414.50;;;;;;;7.29;100.00;98026.56;7388054;19;20015;-67
2022/10/04 01:16:35;;;;;;;426.02;388.42;;;;;;;7.19;100.00;98010.50;7390809;19;20011;-66
2022/10/04 01:19:30;;;;;;;445.52;405.85;;;;;;;7.22;100.00;98012.97;7383866;19;20399;-67
2022/10/04 01:22:13;;;;;;;445.38;408.00;;;;;;;7.27;100.00;98002.25;7390406;19;20035;-70
2022/10/04 01:24:48;;;;;;;447.95;409.05;;;;;;;7.27;100.00;98012.72;7387409;19;20054;-65
2022/10/04 01:27:35;;;;;;;444.05;406.30;;;;;;;7.28;100.00;98011.81;7386944;19;20015;-66
2022/10/04 01:30:10;;;;;;;442.17;404.88;;;;;;;7.31;100.00;98004.63;7390056;19;20025;-68
2022/10/04 01:32:41;;;;;;;450.98;413.13;;;;;;;7.50;100.00;97994.91;7389879;19;20467;-65
2022/10/04 01:35:19;;;;;;;453.48;413.33;;;;;;;7.33;100.00;98000.19;7385384;19;20021;-66
2022/10/04 01:37:49;;;;;;;439.42;402.60;;;;;;;7.42;100.00;98007.53;7389543;19;20023;-66
2022/10/04 01:40:23;;;;;;;448.75;410.90;;;;;;;7.31;100.00;98011.63;7387176;19;20021;-70
2022/10/04 01:42:57;;;;;;;455.23;415.55;;;;;;;7.41;100.00;97999.78;7387614;19;20713;-67
2022/10/04 01:45:37;;;;;;;439.00;400.73;;;;;;;7.36;100.00;98004.41;7388471;19;20097;-67
2022/10/04 01:48:12;;;;;;;433.70;394.27;;;;;;;7.42;100.00;97996.22;7384737;19;20019;-67
2022/10/04 01:50:50;;;;;;;423.73;386.73;;;;;;;7.33;100.00;97989.72;7388254;19;20014;-66
2022/10/04 01:53:27;;;;;;;434.60;394.85;;;;;;;7.36;100.00;97992.16;7383156;19;20011;-67
2022/10/04 01:56:10;;;;;;;434.77;397.55;;;;;;;7.35;100.00;97987.84;7390274;19;20074;-66
2022/10/04 01:58:46;;;;;;;459.20;418.67;;;;;;;7.39;100.00;98006.88;7383755;19;20015;-65
2022/10/04 02:01:25;;;;;;;452.90;414.58;;;;;;;7.47;100.00;98013.38;7389167;19;20098;-66
2022/10/04 02:04:00;;;;;;;459.30;419.17;;;;;;;7.52;100.00;98013.16;7381526;19;20007;-74
2022/10/04 02:06:32;;;;;;;420.67;384.13;;;;;;;7.45;100.00;98010.00;7389208;19;20021;-70
2022/10/04 02:09:03;;;;;;;426.67;390.30;;;;;;;7.59;100.00;98010.13;7387767;19;20018;-66
2022/10/04 02:11:38;;;;;;;432.92;394.15;;;;;;;7.45;100.00;98007.38;7384305;19;20049;-66
2022/10/04 02:14:17;;;;;;;423.05;386.77;;;;;;;7.44;100.00;98010.09;7385182;19;20010;-66
2022/10/04 02:16:52;;;;;;;455.08;415.05;;;;;;;7.50;100.00;98009.78;7381040;19;20367;-66
2022/10/04 02:19:24;;;;;;;444.05;406.60;;;;;;;7.39;100.00;98012.09;7387445;19;20022;-66
2022/10/04 02:21:55;;;;;;;435.13;397.58;;;;;;;7.57;100.00;98019.84;7388312;19;20006;-66
2022/10/04 02:24:25;;;;;;;459.45;418.48;;;;;;;7.50;100.00;98018.47;7382818;19;20023;-66
2022/10/04 02:26:58;;;;;;;425.73;388.75;;;;;;;7.42;100.00;98009.31;7388104;19;20032;-67
2022/10/04 02:29:29;;;;;;;422.20;385.38;;;;;;;7.68;100.00;98016.66;7387962;19;20370;-75
2022/10/04 02:34:44;;;;;;;435.65;397.88;;;;;;;7.45;100.00;98017.00;7386278;19;20364;-66
2022/10/04 02:37:16;;;;;;;459.25;418.35;;;;;;;7.65;100.00;98020.28;7382046;19;20043;-67
2022/10/04 02:39:50;;;;;;;451.33;412.60;;;;;;;7.39;100.00;98018.16;7385612;19;20009;-67
2022/10/04 02:42:34;;;;;;;462.25;422.20;;;;;;;7.40;100.00;98027.72;7386889;19;20082;-74
2022/10/04 02:45:14;;;;;;;460.45;420.35;;;;;;;7.50;100.00;98025.47;7385686;19;20095;-67
2022/10/04 02:47:49;;;;;;;453.85;414.33;;;;;;;7.55;100.00;98032.16;7382147;19;20007;-77
2022/10/04 02:50:31;;;;;;;444.20;406.17;;;;;;;7.43;100.00;98024.09;7386937;19;20021;-66
2022/10/04 02:53:11;;;;;;;450.23;411.38;;;;;;;7.55;100.00;98029.56;7385445;19;20010;-75
2022/10/04 02:55:42;;;;;;;430.05;392.52;;;;;;;7.40;100.00;98030.34;7386864;19;20014;-67
2022/10/04 02:58:19;;;;;;;468.13;428.38;;;;;;;7.43;100.00;98022.31;7386152;19;20014;-67
2022/10/04 03:00:52;;;;;;;481.67;438.33;;;;;;;7.51;100.00;98017.56;7380104;19;20325;-72
2022/10/04 03:03:27;;;;;;;449.45;409.00;;;;;;;7.39;100.00;98018.16;7384681;19;20034;-65
2022/10/04 03:06:04;;;;;;;452.63;411.45;;;;;;;7.44;100.00;98021.41;7382183;19;20011;-67
2022/10/04 03:08:46;;;;;;;451.65;411.60;;;;;;;7.53;100.00;98013.06;7387508;19;20462;-67
2022/10/04 03:11:19;;;;;;;422.52;383.77;;;;;;;7.62;100.00;98014.38;7382481;19;20014;-69
2022/10/04 03:13:54;;;;;;;433.05;394.90;;;;;;;7.63;100.00;98027.38;7385870;19;20014;-64
2022/10/04 03:16:25;;;;;;;432.50;394.27;;;;;;;7.46;100.00;98030.00;7386065;19;20010;-65
2022/10/04 03:18:58;;;;;;;437.10;397.23;;;;;;;7.53;100.00;98014.81;7380272;19;20050;-67
2022/10/04 03:21:29;;;;;;;466.73;426.63;;;;;;;7.50;100.00;98021.06;7385232;19;20009;-68
2022/10/04 03:24:01;;;;;;;452.50;413.15;;;;;;;7.45;100.00;98022.25;7385327;19;20006;-66
2022/10/04 03:26:36;;;;;;;442.83;403.15;;;;;;;7.38;100.00;98018.25;7383005;19;20015;-66
2022/10/04 03:29:13;;;;;;;438.70;399.67;;;;;;;7.52;100.00;98016.63;7387060;19;20025;-66
2022/10/04 03:31:46;;;;;;;437.67;397.13;;;;;;;7.43;100.00;98022.31;7382402;19;20389;-66
2022/10/04 03:34:18;;;;;;;415.02;378.58;;;;;;;7.49;100.00;98026.38;7385960;19;20078;-65
2022/10/04 03:36:51;;;;;;;418.73;382.35;;;;;;;7.54;100.00;98022.59;7384097;19;20410;-65
2022/10/04 03:39:32;;;;;;;420.42;382.23;;;;;;;7.63;100.00;98029.13;7385499;19;20046;-66
2022/10/04 03:42:05;;;;;;;429.15;391.38;;;;;;;7.52;100.00;98028.84;7384475;19;20015;-67
2022/10/04 03:44:38;;;;;;;452.92;412.13;;;;;;;7.58;100.00;98024.13;7378293;19;20015;-68
2022/10/04 03:47:13;;;;;;;458.15;418.63;;;;;;;7.58;100.00;98029.38;7385623;19;20011;-67
2022/10/04 03:49:46;;;;;;;437.13;397.48;;;;;;;7.66;100.00;98027.22;7382353;19;20015;-75
2022/10/04 03:52:22;;;;;;;429.92;391.63;;;;;;;7.48;100.00;98017.72;7385362;19;20336;-57
2022/10/04 03:54:54;;;;;;;;;;;;;;;7.55;100.00;98021.69;7387330;19;20015;-66
2022/10/04 03:57:25;;;;;;;431.20;391.30;;;;;;;7.45;100.00;98022.25;7379628;19;20296;-67
2022/10/04 03:59:58;;;;;;;425.00;387.50;;;;;;;7.54;100.00;98032.25;7382264;19;20078;-68
2022/10/04 04:02:34;;;;;;;435.38;397.67;;;;;;;7.41;100.00;98032.03;7384330;19;20019;-66
2022/10/04 04:05:12;;;;;;;438.17;400.25;;;;;;;7.62;100.00;98024.84;7382866;19;20462;-66
2022/10/04 04:07:48;;;;;;;456.92;418.38;;;;;;;7.56;100.00;98025.16;7383595;19;20373;-64
2022/10/04 04:10:24;;;;;;;449.98;409.05;;;;;;;7.46;100.00;98032.63;7382827;19;20028;-67
2022/10/04 04:12:59;;;;;;;447.70;407.35;;;;;;;7.43;100.00;98032.78;7383218;19;20018;-66
2022/10/04 04:15:36;;;;;;;460.63;418.08;;;;;;;7.30;100.00;98034.34;7385994;19;20506;-65
2022/10/04 04:18:08;;;;;;;470.45;428.10;;;;;;;7.42;100.00;98041.56;7393391;19;20006;-65
2022/10/04 04:20:40;;;;;;;465.63;424.67;;;;;;;7.29;100.00;98043.13;7392133;19;20018;-66
2022/10/04 04:23:24;;;;;;;443.38;400.75;;;;;;;7.49;100.00;98050.81;7387096;19;20019;-63
2022/10/04 04:26:01;;;;;;;432.90;392.02;;;;;;;7.38;100.00;98047.88;7387235;19;20081;-63
2022/10/04 04:28:36;;;;;;;431.08;389.33;;;;;;;7.30;100.00;98050.06;7390002;19;20011;-65
2022/10/04 04:31:16;;;;;;;453.80;412.05;;;;;;;7.28;100.00;98046.66;7392951;19;20502;-70
2022/10/04 04:33:51;;;;;;;447.58;405.70;;;;;;;7.29;100.00;98057.97;7387947;19;20010;-64
2022/10/04 04:36:21;;;;;;;476.60;433.05;;;;;;;7.38;100.00;98055.75;7391140;19;20016;-65
2022/10/04 04:41:36;;;;;;;493.50;448.73;;;;;;;7.44;100.00;98063.28;7392061;19;20007;-64
2022/10/04 04:44:18;;;;;;;468.27;425.10;;;;;;;7.44;100.00;98068.53;7390820;19;20419;-65
2022/10/04 04:46:52;;;;;;;476.88;434.23;;;;;;;7.40;100.00;98069.63;7389938;19;20031;-63
2022/10/04 04:49:23;;;;;;;471.38;429.35;;;;;;;7.34;100.00;98069.91;7387262;19;20015;-62
2022/10/04 04:51:55;;;;;;;487.05;442.98;;;;;;;7.17;100.00;98085.59;7382552;19;20018;-63
2022/10/04 04:54:27;;;;;;;487.65;445.70;;;;;;;7.08;100.00;98086.06;7383266;19;20093;-67
2022/10/04 04:56:59;;;;;;;500.88;457.13;;;;;;;7.06;100.00;98082.66;7387850;19;20029;-64
2022/10/04 04:59:30;;;;;;;498.23;453.13;;;;;;;6.91;100.00;98078.19;7384282;19;20026;-64
2022/10/04 05:02:05;;;;;;;486.83;443.98;;;;;;;6.94;100.00;98075.44;7388342;19;20014;-68
2022/10/04 05:04:38;;;;;;;496.38;451.52;;;;;;;6.92;100.00;98090.38;7382147;19;20015;-73
2022/10/04 05:07:18;;;;;;;493.63;449.45;;;;;;;6.81;100.00;98090.03;7387410;19;20037;-67
2022/10/04 05:09:48;;;;;;;487.83;444.73;;;;;;;7.01;100.00;98086.44;7387295;19;20005;-68
2022/10/04 05:12:23;;;;;;;493.88;450.10;;;;;;;6.91;100.00;98088.66;7384389;19;20006;-66
2022/10/04 05:14:55;;;;;;;480.58;438.60;;;;;;;6.98;100.00;98089.22;7387061;19;20339;-68
2022/10/04 05:17:34;;;;;;;486.25;443.17;;;;;;;6.93;100.00;98105.13;7382067;19;20011;-73
2022/10/04 05:20:06;;;;;;;478.25;435.58;;;;;;;7.10;100.00;98099.91;7384955;19;20011;-64
2022/10/04 05:22:38;;;;;;;491.92;447.80;;;;;;;7.03;100.00;98106.38;7386263;19;20081;-64
2022/10/04 05:25:15;;;;;;;508.65;462.65;;;;;;;6.94;100.00;98114.66;7382646;19;20025;-65
2022/10/04 05:27:48;;;;;;;482.58;438.95;;;;;;;6.96;100.00;98114.59;7383977;19;20018;-65
2022/10/04 05:30:35;;;;;;;496.10;450.40;;;;;;;7.22;100.00;98112.41;7381876;19;20006;-67
2022/10/04 05:33:10;;;;;;;477.23;433.58;;;;;;;7.09;100.00;98113.91;7384973;19;20022;-64
2022/10/04 05:36:03;;;;;;;484.80;440.25;;;;;;;7.13;100.00;98107.59;7379518;19;20042;-64
2022/10/04 05:38:42;;;;;;;470.85;428.65;;;;;;;7.08;100.00;98106.13;7389973;19;20475;-64
2022/10/04 05:41:23;;;;;;;475.92;431.35;;;;;;;7.03;100.00;98124.69;7384099;19;20462;-65
2022/10/04 05:43:54;;;;;;;473.42;431.73;;;;;;;6.98;100.00;98129.28;7387223;19;20031;-66
2022/10/04 05:46:29;;;;;;;487.00;442.67;;;;;;;7.08;100.00;98130.53;7377130;19;20478;-69
2022/10/04 05:49:08;;;;;;;474.02;432.10;;;;;;;7.03;100.00;98129.94;7381495;19;20114;-65
2022/10/04 05:51:52;;;;;;;487.90;444.17;;;;;;;7.18;100.00;98144.88;7377780;19;20010;-75
2022/10/04 05:54:24;;;;;;;479.50;436.38;;;;;;;7.39;100.00;98138.56;7384734;19;20358;-60
2022/10/04 05:57:22;;;;;;;476.75;434.90;;;;;;;7.65;100.00;98140.72;7384126;19;20031;-71
2022/10/04 06:00:16;;;;;;;483.42;440.48;;;;;;;7.51;100.00;98137.97;7384973;19;20405;-66
2022/10/04 06:03:16;;;;;;;461.08;420.23;;;;;;;7.57;100.00;98142.88;7382189;19;20041;-62
2022/10/04 06:05:52;;;;;;;472.48;428.83;;;;;;;7.49;100.00;98147.66;7380593;19;20011;-67
2022/10/04 06:08:45;;;;;;;466.35;424.95;;;;;;;7.36;100.00;98151.78;7381604;19;20010;-66
2022/10/04 06:11:32;;;;;;;463.83;422.17;;;;;;;7.56;100.00;98162.13;7381482;19;20014;-66
2022/10/04 06:14:34;;;;;;;485.90;442.63;;;;;;;7.67;100.00;98166.81;7382822;19;20498;-75
2022/10/04 06:17:24;;;;;;;480.30;436.88;;;;;;;7.65;100.00;98171.31;7385800;19;20009;-67
2022/10/04 06:20:24;;;;;;;481.17;438.20;;;;;;;7.51;100.00;98166.78;7385502;19;20040;-66
2022/10/04 06:23:02;;;;;;;480.85;436.50;;;;;;;7.47;100.00;98174.84;7377892;19;20014;-66
2022/10/04 06:25:38;;;;;;;471.45;430.00;;;;;;;7.58;100.00;98185.63;7380062;19;20014;-65
2022/10/04 06:28:17;;;;;;;469.90;426.48;;;;;;;7.71;100.00;98181.44;7374296;19;20026;-66
2022/10/04 06:31:07;;;;;;;486.23;443.98;;;;;;;7.56;100.00;98185.69;7381978;19;20010;-65
2022/10/04 06:33:54;;;;;;;501.45;456.08;;;;;;;7.84;100.00;98193.06;7379019;19;20014;-67
2022/10/04 06:36:54;;;;;;;480.60;437.52;;;;;;;7.95;100.00;98181.13;7379856;19;20018;-65
2022/10/04 06:39:45;;;;;;;488.50;445.02;;;;;;;7.97;100.00;98179.25;7380144;19;20023;-69
2022/10/04 06:42:38;;;;;;;469.88;428.45;;;;;;;7.72;100.00;98193.66;7379942;19;20152;-66
2022/10/04 06:45:30;;;;;;;488.02;443.45;;;;;;;7.72;100.00;98193.66;7372105;19;20510;-68
2022/10/04 06:48:17;;;;;;;487.67;444.20;;;;;;;7.95;100.00;98195.97;7380633;19;20014;-64
2022/10/04 06:50:52;;;;;;;546.25;495.20;;;;;;;7.55;100.00;98204.97;7378151;19;20022;-68
2022/10/04 06:53:35;;;;;;;563.30;511.27;;;;;;;7.90;100.00;98217.16;7378651;19;20014;-65
2022/10/04 06:56:47;;;;;;;529.17;480.38;;;;;;;7.78;100.00;98215.16;7381984;19;20018;-66
2022/10/04 06:59:43;;;;;;;548.13;497.75;;;;;;;7.98;100.00;98215.00;7379316;19;20101;-69
2022/10/04 07:02:19;;;;;;;579.10;525.78;;;;;;;7.97;100.00;98228.16;7375775;19;20048;-75
2022/10/04 07:04:56;;;;;;;477.33;435.95;;;;;;;7.83;100.00;98225.41;7380487;19;20010;-66
2022/10/04 07:07:38;;;;;;;502.05;456.73;;;;;;;8.20;100.00;98222.63;7383705;19;20373;-67
2022/10/04 07:10:28;;;;;;;548.10;498.27;;;;;;;7.86;100.00;98238.34;7384231;19;20011;-66
2022/10/04 07:13:15;;;;;;;522.88;475.90;;;;;;;8.01;100.00;98238.41;7379487;19;20635;-64
2022/10/04 07:15:53;;;;;;;508.05;463.00;;;;;;;8.27;100.00;98236.25;7383573;19;20566;-64
2022/10/04 07:18:28;;;;;;;510.15;462.88;;;;;;;8.26;100.00;98240.63;7379514;19;20474;-65
2022/10/04 07:21:06;;;;;;;497.02;451.85;;;;;;;8.44;100.00;98247.53;7386501;19;20021;-65
2022/10/04 07:23:42;;;;;;;488.88;445.92;;;;;;;8.40;100.00;98245.16;7378441;19;20006;-76
2022/10/04 07:26:23;;;;;;;492.92;450.15;;;;;;;8.33;100.00;98251.66;7383366;19;20006;-59
2022/10/04 07:31:41;;;;;;;502.85;459.80;;;;;;;8.08;100.00;98238.94;7384516;19;20039;-66
2022/10/04 07:34:20;;;;;;;479.38;437.27;;;;;;;8.09;100.00;98251.97;7388295;19;20026;-74
2022/10/04 07:36:53;;;;;;;481.25;439.02;;;;;;;8.32;100.00;98257.81;7384678;19;20486;-66
2022/10/04 07:39:29;;;;;;;482.08;440.52;;;;;;;8.32;100.00;98256.06;7384801;19;20014;-66
2022/10/04 07:42:09;;;;;;;521.20;475.67;;;;;;;8.43;100.00;98256.34;7380645;19;20014;-66
2022/10/04 07:44:47;;;;;;;525.35;478.70;;;;;;;8.21;100.00;98247.03;7384532;19;20275;-69
2022/10/04 07:47:23;;;;;;;530.45;482.17;;;;;;;8.13;100.00;98262.31;7378624;19;20014;-67
2022/10/04 07:49:53;;;;;;;533.80;488.02;;;;;;;8.26;100.00;98263.41;7389553;19;20070;-66
2022/10/04 07:52:44;;;;;;;492.23;448.85;;;;;;;8.42;100.00;98256.41;7393701;19;20014;-68
2022/10/04 07:55:24;;;;;;;476.65;435.58;;;;;;;8.79;100.00;98261.44;7390397;19;20035;-67
2022/10/04 07:58:15;;;;;;;502.02;458.27;;;;;;;8.80;100.00;98265.72;7385793;19;20047;-70
2022/10/04 08:00:54;;;;;;;483.58;441.08;;;;;;;8.73;100.00;98269.59;7390675;19;20015;-65
2022/10/04 08:03:58;;;;;;;482.25;439.45;;;;;;;8.84;100.00;98277.75;7391301;19;20014;-64
2022/10/04 08:06:35;;;;;;;;;;;;;;;8.92;100.00;98280.84;7387453;19;20019;-61
2022/10/04 08:09:21;;;;;;;429.27;387.52;;;;;;;8.94;100.00;98281.59;7390440;19;19919;-60
2022/10/04 08:12:00;;;;;;;443.08;399.60;;;;;;;8.90;100.00;98272.19;7385712;19;20014;-59
2022/10/04 08:14:42;;;;;;;459.20;416.52;;;;;;;9.05;100.00;98284.47;7391733;19;20422;-61
2022/10/04 08:17:27;;;;;;;517.05;467.02;;;;;;;8.80;100.00;98284.97;7386192;19;20010;-59
2022/10/04 08:20:11;;;;;;;521.08;471.83;;;;;;;9.05;100.00;98287.09;7389674;19;20014;-55
2022/10/04 08:22:54;;;;;;;526.70;476.60;;;;;;;8.95;100.00;98289.38;7387729;19;20011;-53
2022/10/04 08:25:32;;;;;;;526.67;477.17;;;;;;;9.57;100.00;98283.34;7390719;19;20011;-56
2022/10/04 08:31:15;;;;;;;;;;;;;;;8.75;100.00;98307.97;7389588;19;20011;-69
2022/10/04 08:34:09;;;;;;;514.08;465.95;;;;;;;8.61;100.00;98312.22;7389498;19;19970;-45
2022/10/04 08:36:54;;;;;;;508.85;461.35;;;;;;;8.78;100.00;98314.81;7391309;19;20006;-53
2022/10/04 08:39:35;;;;;;;536.03;487.90;;;;;;;8.92;100.00;98314.94;7390024;19;20070;-49
2022/10/04 08:42:40;;;;;;;521.13;473.05;;;;;;;8.70;100.00;98315.22;7390654;19;20035;-52
2022/10/04 08:45:42;;;;;;;509.38;460.98;;;;;;;8.77;100.00;98316.59;7392492;19;20015;-54
2022/10/04 08:48:44;;;;;;;529.20;479.77;;;;;;;8.73;100.00;98315.06;7384509;19;20104;-56
2022/10/04 08:51:54;;;;;;;524.67;475.90;;;;;;;8.66;100.00;98320.72;7388529;19;20515;-67
2022/10/04 08:54:53;;;;;;;524.22;475.33;;;;;;;8.75;100.00;98315.84;7384168;19;20026;-68
2022/10/04 08:57:54;;;;;;;522.35;473.10;;;;;;;8.82;100.00;98325.06;7386460;19;20045;-61
2022/10/04 09:00:30;;;;;;;508.38;460.52;;;;;;;9.02;100.00;98327.50;7387367;19;20029;-59
2022/10/04 09:03:25;;;;;;;514.15;466.23;;;;;;;9.43;100.00;98320.03;7378428;19;20017;-60
2022/10/04 09:06:35;;;;;;;519.22;471.35;;;;;;;9.13;100.00;98321.66;7384758;19;20098;-61
2022/10/04 09:09:41;;;;;;;534.38;484.00;;;;;;;9.46;100.00;98319.84;7388548;19;20032;-60
2022/10/04 09:12:49;;;;;;;505.67;457.77;;;;;;;9.73;100.00;98320.97;7388359;19;20031;-60
2022/10/04 09:15:29;;;;;;;526.30;476.60;;;;;;;9.69;100.00;98324.69;7386585;19;20010;-59
2022/10/04 09:18:19;;;;;;;548.70;497.08;;;;;;;9.46;100.00;98328.59;7380068;19;20051;-64
2022/10/04 09:21:00;;;;;;;521.00;471.15;;;;;;;9.49;100.00;98322.31;7387503;19;20017;-61
2022/10/04 09:23:59;;;;;;;533.38;482.27;;;;;;;9.42;100.00;98329.69;7381082;19;20018;-59
2022/10/04 09:26:46;;;;;;;532.53;482.58;;;;;;;9.47;100.00;98332.91;7385213;19;20021;-62
2022/10/04 09:29:37;;;;;;;531.40;480.67;;;;;;;9.50;100.00;98338.00;7388098;19;20015;-59
2022/10/04 09:32:34;;;;;;;535.55;483.35;;;;;;;9.51;100.00;98336.22;7385702;19;20014;-61
2022/10/04 09:35:40;;;;;;;525.85;474.58;;;;;;;9.48;100.00;98345.09;7386932;19;20034;-63
2022/10/04 09:38:39;;;;;;;522.47;471.90;;;;;;;9.64;100.00;98345.09;7385262;19;20018;-62
2022/10/04 09:41:33;;;;;;;514.55;464.52;;;;;;;9.40;100.00;98349.09;7390167;19;20025;-63
2022/10/04 09:44:35;;;;;;;517.58;467.83;;;;;;;9.50;100.00;98351.13;7389555;19;20046;-63
2022/10/04 09:47:29;;;;;;;533.92;482.23;;;;;;;9.94;100.00;98349.50;7386677;19;20048;-62
2022/10/04 09:50:36;;;;;;;515.40;465.02;;;;;;;10.17;100.00;98356.06;7389265;19;20014;-68
2022/10/04 09:53:22;;;;;;;509.92;460.00;;;;;;;9.82;100.00;98365.09;7385786;19;20014;-64
2022/10/04 09:56:17;;;;;;;527.03;476.80;;;;;;;10.18;100.00;98363.03;7387172;19;20035;-60
2022/10/04 09:59:20;;;;;;;525.47;474.48;;;;;;;9.92;100.00;98371.56;7384308;19;20444;-61
2022/10/04 10:02:27;;;;;;;525.03;474.40;;;;;;;10.01;100.00;98368.41;7381923;19;20019;-64
2022/10/04 10:05:25;;;;;;;519.83;468.85;;;;;;;9.80;100.00;98366.97;7387527;19;20378;-63
2022/10/04 10:08:10;;;;;;;518.00;466.45;;;;;;;10.43;100.00;98374.66;7387094;19;20454;-62
2022/10/04 10:14:06;;;;;;;545.30;492.60;;;;;;;10.29;100.00;98371.16;7381078;19;20021;-64
2022/10/04 10:16:59;;;;;;;537.63;486.05;;;;;;;10.26;100.00;98376.59;7385610;19;20458;-62
2022/10/04 10:19:52;;;;;;;527.83;476.25;;;;;;;10.19;100.00;98373.47;7389130;19;20010;-63
2022/10/04 10:22:43;;;;;;;546.67;493.17;;;;;;;10.35;100.00;98376.03;7386870;19;20010;-62
2022/10/04 10:25:42;;;;;;;532.45;481.25;;;;;;;10.03;100.00;98371.81;7386110;19;20078;-61
2022/10/04 10:28:33;;;;;;;531.92;480.20;;;;;;;10.20;100.00;98380.41;7386541;19;20021;-62
2022/10/04 10:31:21;;;;;;;;;;;;;;;10.37;100.00;98379.44;7389500;19;20356;-63
2022/10/04 10:34:24;;;;;;;531.60;479.45;;;;;;;10.60;100.00;98386.84;7386547;19;20319;-62
2022/10/04 10:37:10;;;;;;;532.53;481.45;;;;;;;10.27;100.00;98384.41;7387108;19;20033;-62
2022/10/04 10:39:59;;;;;;;534.83;483.75;;;;;;;10.57;100.00;98382.59;7388732;19;20022;-61
2022/10/04 10:42:52;;;;;;;551.08;498.48;;;;;;;10.31;100.00;98387.69;7382400;19;20038;-61
2022/10/04 10:45:39;;;;;;;528.08;478.58;;;;;;;10.25;100.00;98394.13;7386955;19;20015;-62
2022/10/04 10:48:18;;;;;;;529.25;479.83;;;;;;;9.97;100.00;98393.16;7383990;19;20015;-61
2022/10/04 10:51:11;;;;;;;534.30;484.42;;;;;;;10.00;100.00;98403.50;7389510;19;20018;-62
2022/10/04 10:54:04;;;;;;;550.72;497.55;;;;;;;10.11;100.00;98403.75;7389183;19;20360;-63
2022/10/04 10:56:55;;;;;;;540.67;488.58;;;;;;;9.95;100.00;98408.19;7385209;19;20094;-63
2022/10/04 11:00:00;;;;;;;543.45;492.80;;;;;;;9.92;100.00;98405.72;7385543;19;20399;-47
2022/10/04 11:03:10;;;;;;;555.28;503.42;;;;;;;10.22;100.00;98410.09;7384488;19;20040;-48
2022/10/04 11:06:09;;;;;;;532.28;480.73;;;;;;;10.32;100.00;98420.94;7388315;19;20488;-51
2022/10/04 11:09:12;;;;;;;544.05;492.35;;;;;;;10.27;100.00;98423.84;7386500;19;20022;-49
2022/10/04 11:12:06;;;;;;;549.25;496.95;;;;;;;10.22;100.00;98423.22;7386733;19;20018;-52
2022/10/04 11:15:01;;;;;;;558.22;504.15;;;;;;;10.13;100.00;98417.66;7379326;19;20011;-51
2022/10/04 11:18:00;;;;;;;552.83;501.63;;;;;;;9.97;100.00;98427.34;7389001;19;20015;-49
2022/10/04 11:21:01;;;;;;;547.25;496.27;;;;;;;10.35;100.00;98429.50;7387669;19;20018;-53
2022/10/04 11:24:17;;;;;;;526.63;476.38;;;;;;;10.17;100.00;98445.47;7387008;19;20023;-49
2022/10/04 11:27:15;;;;;;;539.15;488.50;;;;;;;10.24;100.00;98438.91;7383088;19;20067;-49
2022/10/04 11:30:01;;;;;;;539.58;488.75;;;;;;;10.12;100.00;98442.25;7383694;19;20028;-53
2022/10/04 11:33:04;;;;;;;538.17;488.95;;;;;;;10.19;100.00;98448.88;7385418;19;20010;-49
2022/10/04 11:35:48;;;;;;;532.80;484.02;;;;;;;10.21;100.00;98447.00;7383709;19;20347;-51
2022/10/04 11:38:39;;;;;;;530.92;480.80;;;;;;;10.10;100.00;98452.84;7379681;19;20531;-54
2022/10/04 11:41:20;;;;;;;515.13;466.98;;;;;;;10.14;100.00;98445.66;7382866;19;20486;-51
2022/10/04 11:44:25;;;;;;;541.50;491.42;;;;;;;10.26;100.00;98442.34;7385397;19;20014;-53
2022/10/04 11:47:01;;;;;;;534.38;484.55;;;;;;;10.39;100.00;98441.53;7381479;19;20011;-53
2022/10/04 11:49:55;;;;;;;;;;;;;;;9.91;100.00;98454.81;7385806;19;20368;-53
2022/10/04 11:53:03;;;;;;;528.75;478.50;;;;;;;9.75;100.00;98453.09;7386135;19;19914;-62
2022/10/04 11:56:03;;;;;;;531.15;481.35;;;;;;;9.84;100.00;98458.69;7381836;19;20018;-62
2022/10/04 11:58:56;;;;;;;552.35;500.35;;;;;;;10.07;100.00;98460.06;7373332;19;20040;-59
2022/10/04 12:01:58;;;;;;;518.83;470.13;;;;;;;10.14;100.00;98456.19;7382435;19;20054;-60
2022/10/04 12:04:57;;;;;;;510.13;461.85;;;;;;;10.14;100.00;98454.38;7383591;19;20022;-61
2022/10/04 12:07:47;;;;;;;526.78;477.35;;;;;;;10.14;100.00;98459.63;7385022;19;20018;-63
2022/10/04 12:10:26;;;;;;;566.40;511.10;;;;;;;10.44;100.00;98465.78;7375635;19;20347;-62
2022/10/04 12:13:32;;;;;;;540.33;487.85;;;;;;;10.63;100.00;98462.97;7386808;19;20010;-61
2022/10/04 12:16:37;;;;;;;536.33;485.08;;;;;;;10.45;100.00;98469.28;7383188;19;20029;-61
2022/10/04 12:19:41;;;;;;;513.47;463.70;;;;;;;10.45;100.00;98466.66;7385419;19;20022;-63
2022/10/04 12:22:40;;;;;;;530.30;479.45;;;;;;;10.28;100.00;98469.38;7382883;19;20021;-62
2022/10/04 12:25:42;;;;;;;531.08;479.40;;;;;;;10.11;100.00;98462.47;7377835;19;20029;-62
2022/10/04 12:28:39;;;;;;;525.72;475.05;;;;;;;10.46;100.00;98465.72;7378730;19;20416;-63
2022/10/04 12:31:22;;;;;;;519.00;469.15;;;;;;;10.66;100.00;98458.38;7381893;19;20021;-63